Ben Bolt, Texas
Current Conditions -  °F | °C
As of 2:15 PM on Thursday 18 Dec 2014 (Local Time) from KALI Reporting Station
Overcast Overcast  
Wind Chill: 78°   Ceiling: 2200
Heat Index: 80°   Visibility: 10mi
Dew Point: 66°   Wind: 9mph
Humidity: 66%   Direction: 150°SSE
Pressure: 29.96"   Gusts: NA
Location:  27.65°N, 98.08°W
Report Text: KALI 182015Z AUTO 15008KT 10SM BKN022 BKN046 OVC080 26/19 A2996 RMK AO2 T02560189
Loading
Personal Weather Stations






























Interactive Weather Map New forecast layout! Learn more

10-Day Weather Forecast

Advertisements
Track Severe Weather on mobile